Bochem Mumbai — VRHJ8 — position and weather

sailwx.info

Track history (hours):
 
Tides and Currents Weather Stations Pressure Air Temp Water Temp Dewpoint Dewpoint Depression Visibility Wind Speed Wind Dir Waves Ship Positions

Bochem Mumbai

Last reported at 2016-Jun-20 08:20 UTC. Time now 2016-Jun-30 17:44 UTC.
Position N 31°16' E 121°55'.
Warning: this ship's position is 10 days out of date.

Length 171 m; draft 8 m.

Type: Ship (hazmat cat C). MMSI: 477932400.

Date/timePositionNaut miles runAvg speedWind from/ knotsBaromVisibWave heightAir tempDewpointWater temp
2016-Jun-20 08:20N 31°16' E 121°55'1114.4
2016-Jun-20 07:33N 31°19' E 121°43'1111.6
2016-Jun-20 06:33N 31°25' E 121°31'1111.2
2016-Jun-20 05:33N 31°32' E 121°21'1313.0
2016-Jun-20 04:33N 31°41' E 121°10'1311.8
2016-Jun-20 03:27N 31°47' E 120°56'1314.0
2016-Jun-20 02:31N 31°59' E 120°50'1312.1
2016-Jun-20 01:26N 32°02' E 120°35'910.2
2016-Jun-20 00:32N 32°02' E 120°24'1312.6
2016-Jun-19 23:31N 31°56' E 120°11'1212.8
2016-Jun-19 22:33N 32°01' E 119°58'0 0.0
2016-Jun-19 19:28N 32°01' E 119°58'0 0.0
2016-Jun-19 15:30N 32°01' E 119°58'2 0.5
2016-Jun-19 12:12N 32°00' E 119°59'4 5.3
2016-Jun-19 11:27N 31°57' E 120°02'0 0.0
2016-Jun-19 07:33N 31°57' E 120°02'0 0.0
2016-Jun-19 01:09N 31°57' E 120°02'0 0.0
2016-Jun-18 22:27N 31°57' E 120°02'0 0.0
2016-Jun-18 20:09N 31°57' E 120°02'0 0.0
2016-Jun-18 01:33N 31°57' E 120°02'1 0.1
2016-Jun-17 14:24N 31°58' E 120°01'0 0.0
2016-Jun-17 10:33N 31°58' E 120°01'6 5.9
2016-Jun-17 09:28N 31°56' E 120°09'1010.5
2016-Jun-17 08:31N 31°59' E 120°20'1010.7
2016-Jun-17 07:33N 32°04' E 120°30'1210.7
2016-Jun-17 06:28N 32°00' E 120°43'1110.2
2016-Jun-17 05:24N 31°54' E 120°53'911.1
2016-Jun-17 04:33N 31°47' E 121°00'1312.7
2016-Jun-17 03:33N 31°40' E 121°13'1313.1
2016-Jun-17 02:34N 31°31' E 121°24'1010.0
2016-Jun-17 01:33N 31°24' E 121°33'9 9.1
2016-Jun-17 00:32N 31°19' E 121°42'1414.2
2016-Jun-16 23:33N 31°09' E 121°53'1212.6
2016-Jun-16 22:33N 31°04' E 122°06'1010.1
2016-Jun-16 21:32N 31°03' E 122°18'1211.8
2016-Jun-16 20:30N 30°60' E 122°32'  
2016-Jun-13 08:20N 31°18' E 121°43'911.6
2016-Jun-13 07:34N 31°23' E 121°35'10 9.8
2016-Jun-13 06:34N 31°30' E 121°26'1211.7
2016-Jun-13 05:33N 31°38' E 121°15'1312.9
2016-Jun-13 04:33N 31°46' E 121°04'11 0.4
2016-Jun-11 23:33N 31°53' E 120°54'0 0.0
2016-Jun-11 15:27N 31°53' E 120°54'0 0.0
2016-Jun-11 13:15N 31°53' E 120°54'0 0.0
2016-Jun-11 08:33N 31°53' E 120°54'0 0.0
2016-Jun-11 02:27N 31°53' E 120°54'  
Track history (hours):
 
Tides and Currents Weather Stations Pressure Air Temp Water Temp Dewpoint Dewpoint Depression Visibility Wind Speed Wind Dir Waves Ship Positions

Bochem Mumbai

Last reported at 2016-Jun-20 08:20 UTC. Time now 2016-Jun-30 17:44 UTC.
Position N 31°16' E 121°55'.
Warning: this ship's position is 10 days out of date.

Length 171 m; draft 8 m.

Type: Ship (hazmat cat C). MMSI: 477932400.

Date/timePositionNaut miles runAvg speedWind from/ knotsBaromVisibWave heightAir tempDewpointWater temp
2016-Jun-20 08:20N 31°16' E 121°55'1114.4
2016-Jun-20 07:33N 31°19' E 121°43'1111.6
2016-Jun-20 06:33N 31°25' E 121°31'1111.2
2016-Jun-20 05:33N 31°32' E 121°21'1313.0
2016-Jun-20 04:33N 31°41' E 121°10'1311.8
2016-Jun-20 03:27N 31°47' E 120°56'1314.0
2016-Jun-20 02:31N 31°59' E 120°50'1312.1
2016-Jun-20 01:26N 32°02' E 120°35'910.2
2016-Jun-20 00:32N 32°02' E 120°24'1312.6
2016-Jun-19 23:31N 31°56' E 120°11'1212.8
2016-Jun-19 22:33N 32°01' E 119°58'0 0.0
2016-Jun-19 19:28N 32°01' E 119°58'0 0.0
2016-Jun-19 15:30N 32°01' E 119°58'2 0.5
2016-Jun-19 12:12N 32°00' E 119°59'4 5.3
2016-Jun-19 11:27N 31°57' E 120°02'0 0.0
2016-Jun-19 07:33N 31°57' E 120°02'0 0.0
2016-Jun-19 01:09N 31°57' E 120°02'0 0.0
2016-Jun-18 22:27N 31°57' E 120°02'0 0.0
2016-Jun-18 20:09N 31°57' E 120°02'0 0.0
2016-Jun-18 01:33N 31°57' E 120°02'1 0.1
2016-Jun-17 14:24N 31°58' E 120°01'0 0.0
2016-Jun-17 10:33N 31°58' E 120°01'6 5.9
2016-Jun-17 09:28N 31°56' E 120°09'1010.5
2016-Jun-17 08:31N 31°59' E 120°20'1010.7
2016-Jun-17 07:33N 32°04' E 120°30'1210.7
2016-Jun-17 06:28N 32°00' E 120°43'1110.2
2016-Jun-17 05:24N 31°54' E 120°53'911.1
2016-Jun-17 04:33N 31°47' E 121°00'1312.7
2016-Jun-17 03:33N 31°40' E 121°13'1313.1
2016-Jun-17 02:34N 31°31' E 121°24'1010.0
2016-Jun-17 01:33N 31°24' E 121°33'9 9.1
2016-Jun-17 00:32N 31°19' E 121°42'1414.2
2016-Jun-16 23:33N 31°09' E 121°53'1212.6
2016-Jun-16 22:33N 31°04' E 122°06'1010.1
2016-Jun-16 21:32N 31°03' E 122°18'1211.8
2016-Jun-16 20:30N 30°60' E 122°32'  
2016-Jun-13 08:20N 31°18' E 121°43'911.6
2016-Jun-13 07:34N 31°23' E 121°35'10 9.8
2016-Jun-13 06:34N 31°30' E 121°26'1211.7
2016-Jun-13 05:33N 31°38' E 121°15'1312.9
2016-Jun-13 04:33N 31°46' E 121°04'11 0.4
2016-Jun-11 23:33N 31°53' E 120°54'0 0.0
2016-Jun-11 15:27N 31°53' E 120°54'0 0.0
2016-Jun-11 13:15N 31°53' E 120°54'0 0.0
2016-Jun-11 08:33N 31°53' E 120°54'0 0.0
2016-Jun-11 02:27N 31°53' E 120°54'  

Dump ship's entire track history